createdAt,value
2022-10-12T00:00:02.820Z,9.22
2022-10-12T00:05:13.672Z,9.12
2022-10-12T00:10:15.372Z,9.04
2022-10-12T00:15:17.010Z,8.98
2022-10-12T00:20:18.519Z,8.93
2022-10-12T00:25:22.165Z,8.85
2022-10-12T00:30:23.662Z,8.81
2022-10-12T00:35:25.334Z,8.85
2022-10-12T00:40:26.874Z,8.85
2022-10-12T00:45:28.585Z,8.77
2022-10-12T00:50:33.984Z,8.82
2022-10-12T00:55:40.361Z,8.85
2022-10-12T01:00:42.951Z,8.86
2022-10-12T01:05:44.766Z,8.88
2022-10-12T01:10:46.267Z,8.88
2022-10-12T01:16:26.431Z,9.01
2022-10-12T01:21:28.561Z,9.10
2022-10-12T01:26:48.829Z,9.15
2022-10-12T01:32:01.898Z,9.15
2022-10-12T01:37:26.384Z,9.06
2022-10-12T01:42:31.630Z,9.03
2022-10-12T01:47:33.907Z,9.00
2022-10-12T01:52:45.552Z,8.98
2022-10-12T01:58:07.593Z,8.90
2022-10-12T02:03:51.868Z,8.91
2022-10-12T02:09:06.143Z,8.92
2022-10-12T02:14:25.946Z,8.95
2022-10-12T02:19:31.136Z,8.98
2022-10-12T02:24:39.391Z,8.97
2022-10-12T02:29:43.306Z,8.97
2022-10-12T02:34:56.769Z,8.95
2022-10-12T02:40:18.864Z,8.93
2022-10-12T02:45:24.523Z,8.91
2022-10-12T02:50:27.248Z,8.90
2022-10-12T02:55:30.669Z,8.92
2022-10-12T03:00:34.387Z,8.91
2022-10-12T03:05:35.960Z,8.89
2022-10-12T03:10:37.670Z,8.84
2022-10-12T03:15:41.573Z,8.76
2022-10-12T03:20:48.352Z,8.72
2022-10-12T03:25:49.971Z,8.67
2022-10-12T03:30:51.579Z,8.56
2022-10-12T03:35:53.380Z,8.47
2022-10-12T03:40:54.911Z,8.42
2022-10-12T03:45:58.938Z,8.32
2022-10-12T03:51:00.550Z,8.26
2022-10-12T03:56:02.074Z,8.21
2022-10-12T04:01:03.888Z,8.17
2022-10-12T04:06:05.799Z,8.21
2022-10-12T04:11:07.421Z,8.20
2022-10-12T04:16:09.776Z,8.25
2022-10-12T04:21:14.988Z,8.25
2022-10-12T04:26:16.738Z,8.29
2022-10-12T04:31:18.753Z,8.33
2022-10-12T04:36:20.294Z,8.36
2022-10-12T04:41:21.846Z,8.38
2022-10-12T04:46:23.397Z,8.42
2022-10-12T04:51:25.152Z,8.48
2022-10-12T04:56:26.711Z,8.51
2022-10-12T05:01:30.433Z,8.56
2022-10-12T05:06:32.333Z,8.64
2022-10-12T05:11:34.033Z,8.71
2022-10-12T05:16:35.648Z,8.70
2022-10-12T05:21:37.809Z,8.69
2022-10-12T05:26:39.496Z,8.69
2022-10-12T05:31:41.083Z,8.83
2022-10-12T05:36:42.621Z,8.97
2022-10-12T05:41:44.171Z,9.05
2022-10-12T05:46:45.708Z,9.00
2022-10-12T05:51:47.325Z,8.97
2022-10-12T05:56:48.909Z,8.97
2022-10-12T06:01:50.617Z,9.03
2022-10-12T06:06:52.212Z,8.95
2022-10-12T06:11:53.980Z,8.90
2022-10-12T06:16:55.542Z,8.83
2022-10-12T06:21:57.457Z,8.84
2022-10-12T06:26:58.992Z,8.86
2022-10-12T06:32:00.602Z,8.95
2022-10-12T06:37:04.001Z,9.10
2022-10-12T06:42:05.613Z,9.26
2022-10-12T06:47:07.139Z,9.33
2022-10-12T06:52:08.724Z,9.49
2022-10-12T06:57:10.297Z,9.69
2022-10-12T07:02:11.948Z,9.83
2022-10-12T07:07:13.510Z,9.94
2022-10-12T07:12:15.082Z,9.98
2022-10-12T07:17:17.351Z,10.08
2022-10-12T07:22:19.028Z,10.21
2022-10-12T07:27:20.623Z,10.37
2022-10-12T07:32:24.277Z,10.55
2022-10-12T07:37:27.611Z,10.57
2022-10-12T07:42:29.161Z,10.61
2022-10-12T07:47:30.756Z,10.71
2022-10-12T07:52:32.931Z,10.69
2022-10-12T07:57:35.674Z,10.74
2022-10-12T08:02:37.494Z,10.87
2022-10-12T08:07:41.736Z,10.97
2022-10-12T08:12:48.398Z,11.07
2022-10-12T08:17:52.604Z,11.17
2022-10-12T08:22:54.397Z,11.45
2022-10-12T08:27:55.916Z,11.76
2022-10-12T08:32:57.469Z,11.78
2022-10-12T08:37:59.004Z,11.76
2022-10-12T08:43:12.997Z,11.71
2022-10-12T08:48:20.538Z,11.74
2022-10-12T08:53:22.907Z,11.95
2022-10-12T08:58:37.902Z,12.29
2022-10-12T09:03:51.872Z,12.74
2022-10-12T09:09:31.346Z,13.22
2022-10-12T09:14:35.684Z,13.79
2022-10-12T09:19:41.112Z,14.32
2022-10-12T09:24:42.720Z,14.65
2022-10-12T09:29:57.491Z,14.83
2022-10-12T09:34:59.804Z,14.75
2022-10-12T09:40:01.910Z,14.63
2022-10-12T09:45:17.495Z,14.63
2022-10-12T09:50:39.882Z,14.41
2022-10-12T09:55:53.101Z,14.34
2022-10-12T10:01:21.366Z,14.35
2022-10-12T10:06:25.071Z,14.16
2022-10-12T10:11:31.426Z,14.07
2022-10-12T10:16:33.224Z,14.12
2022-10-12T10:21:38.242Z,14.13
2022-10-12T10:26:54.898Z,14.14
2022-10-12T10:32:23.620Z,14.09
2022-10-12T10:37:25.261Z,14.20
2022-10-12T10:42:32.711Z,14.31
2022-10-12T10:47:43.329Z,14.38
2022-10-12T10:52:55.386Z,14.50
2022-10-12T10:58:34.659Z,14.42
2022-10-12T11:04:04.440Z,14.40
2022-10-12T11:09:21.706Z,14.46
2022-10-12T11:14:31.118Z,14.46
2022-10-12T11:20:00.952Z,14.49
2022-10-12T11:25:25.649Z,14.60
2022-10-12T11:30:39.059Z,14.81
2022-10-12T11:35:44.119Z,14.95
2022-10-12T11:46:21.918Z,15.07
2022-10-12T11:51:23.506Z,15.17
2022-10-12T11:56:47.580Z,15.33
2022-10-12T12:02:07.600Z,15.44
2022-10-12T12:07:37.197Z,15.51
2022-10-12T12:13:14.673Z,15.52
2022-10-12T12:18:22.058Z,15.61
2022-10-12T12:23:32.603Z,15.74
2022-10-12T12:28:36.056Z,15.89
2022-10-12T12:33:42.119Z,15.95
2022-10-12T12:38:46.755Z,15.95
2022-10-12T12:44:03.907Z,16.00
2022-10-12T12:49:26.250Z,16.04
2022-10-12T12:54:35.961Z,16.10
2022-10-12T12:59:55.927Z,16.14
2022-10-12T13:05:21.721Z,16.15
2022-10-12T13:10:28.905Z,16.18
2022-10-12T13:16:04.808Z,16.25
2022-10-12T13:21:15.749Z,16.31
2022-10-12T13:26:28.073Z,16.42
2022-10-12T13:31:37.276Z,16.48
2022-10-12T13:36:58.184Z,16.48
2022-10-12T13:42:01.555Z,16.58
2022-10-12T13:47:21.771Z,16.63
2022-10-12T13:52:32.311Z,16.72
2022-10-12T13:57:42.627Z,16.77
2022-10-12T14:02:54.166Z,16.77
2022-10-12T14:08:02.504Z,16.77
2022-10-12T14:13:05.089Z,16.77
2022-10-12T14:18:32.484Z,16.80
2022-10-12T14:23:34.085Z,16.83
2022-10-12T14:28:35.770Z,16.88
2022-10-12T14:33:37.373Z,16.87
2022-10-12T14:38:41.606Z,16.83
2022-10-12T14:43:43.127Z,16.87
2022-10-12T14:48:44.672Z,16.95
2022-10-12T14:53:46.175Z,17.02
2022-10-12T14:58:48.148Z,17.18
2022-10-12T15:03:49.709Z,17.41
2022-10-12T15:08:52.521Z,17.55
2022-10-12T15:13:54.059Z,17.64
2022-10-12T15:18:55.696Z,17.83
2022-10-12T15:23:57.319Z,17.73
2022-10-12T15:28:58.896Z,17.46
2022-10-12T15:34:00.480Z,17.12
2022-10-12T15:39:02.032Z,16.88
2022-10-12T15:44:03.704Z,16.70
2022-10-12T15:49:05.367Z,16.52
2022-10-12T15:54:07.196Z,16.34
2022-10-12T15:59:08.856Z,16.17
2022-10-12T16:04:14.592Z,16.00
2022-10-12T16:09:16.176Z,15.83
2022-10-12T16:14:17.754Z,15.65
2022-10-12T16:19:19.415Z,15.50
2022-10-12T16:24:20.973Z,15.36
2022-10-12T16:29:22.515Z,15.23
2022-10-12T16:34:24.021Z,15.04
2022-10-12T16:39:27.573Z,14.77
2022-10-12T16:44:29.179Z,14.59
2022-10-12T16:49:30.684Z,14.32
2022-10-12T16:54:32.776Z,14.03
2022-10-12T16:59:34.380Z,13.78
2022-10-12T17:04:35.954Z,13.51
2022-10-12T17:09:37.539Z,13.29
2022-10-12T17:14:39.071Z,13.03
2022-10-12T17:19:40.879Z,12.78
2022-10-12T17:24:42.793Z,12.58
2022-10-12T17:29:44.316Z,12.36
2022-10-12T17:34:45.950Z,12.09
2022-10-12T17:39:48.334Z,11.91
2022-10-12T17:44:50.104Z,11.77
2022-10-12T17:49:51.638Z,11.62
2022-10-12T17:54:53.197Z,11.49
2022-10-12T17:59:54.724Z,11.38
2022-10-12T18:04:56.240Z,11.22
2022-10-12T18:09:59.898Z,11.04
2022-10-12T18:15:01.801Z,10.96
2022-10-12T18:20:05.194Z,10.94
2022-10-12T18:25:07.238Z,10.85
2022-10-12T18:30:09.501Z,10.75
2022-10-12T18:35:11.045Z,10.63
2022-10-12T18:40:12.604Z,10.54
2022-10-12T18:45:14.441Z,10.45
2022-10-12T18:50:16.084Z,10.37
2022-10-12T18:55:17.639Z,10.30
2022-10-12T19:00:21.519Z,10.20
2022-10-12T19:05:24.602Z,10.03
2022-10-12T19:10:26.127Z,9.96
2022-10-12T19:15:28.541Z,9.87
2022-10-12T19:20:30.995Z,9.85
2022-10-12T19:25:37.261Z,9.86
2022-10-12T19:30:39.065Z,9.82
2022-10-12T19:35:40.696Z,9.73
2022-10-12T19:40:45.372Z,9.63
2022-10-12T19:45:46.924Z,9.53
2022-10-12T19:50:57.495Z,9.44
2022-10-12T19:56:07.832Z,9.32
2022-10-12T20:01:16.025Z,9.21
2022-10-12T20:06:19.964Z,9.14
2022-10-12T20:11:24.682Z,9.09
2022-10-12T20:16:28.992Z,9.03
2022-10-12T20:21:32.754Z,8.98
2022-10-12T20:26:36.656Z,8.86
2022-10-12T20:31:38.224Z,8.73
2022-10-12T20:36:39.779Z,8.66
2022-10-12T20:41:41.408Z,8.67
2022-10-12T20:46:45.635Z,8.66
2022-10-12T20:51:47.314Z,8.68
2022-10-12T20:56:51.935Z,8.72
2022-10-12T21:01:53.465Z,8.52
2022-10-12T21:06:55.218Z,8.38
2022-10-12T21:11:56.725Z,8.35
2022-10-12T21:17:00.354Z,8.29
2022-10-12T21:22:01.863Z,8.27
2022-10-12T21:27:04.723Z,8.22
2022-10-12T21:32:06.277Z,8.22
2022-10-12T21:37:07.795Z,8.13
2022-10-12T21:42:09.346Z,8.04
2022-10-12T21:47:13.854Z,7.97
2022-10-12T21:52:19.151Z,7.92
2022-10-12T21:57:20.928Z,8.00
2022-10-12T22:02:22.836Z,7.97
2022-10-12T22:07:24.371Z,7.94
2022-10-12T22:12:26.043Z,7.87
2022-10-12T22:17:27.615Z,7.80
2022-10-12T22:22:29.209Z,7.79
2022-10-12T22:27:30.744Z,7.75
2022-10-12T22:32:32.312Z,7.68
2022-10-12T22:37:33.846Z,7.81
2022-10-12T22:42:35.381Z,7.83
2022-10-12T22:47:39.164Z,7.88
2022-10-12T22:52:40.657Z,7.90
2022-10-12T22:57:42.193Z,7.83
2022-10-12T23:02:43.703Z,7.69
2022-10-12T23:07:45.282Z,7.60
2022-10-12T23:12:46.846Z,7.58
2022-10-12T23:17:48.450Z,7.48
2022-10-12T23:22:49.990Z,7.43
2022-10-12T23:27:51.588Z,7.43
2022-10-12T23:32:53.090Z,7.41
2022-10-12T23:37:55.030Z,7.39
2022-10-12T23:42:56.582Z,7.38
2022-10-12T23:47:58.101Z,7.35
2022-10-12T23:52:59.612Z,7.27
2022-10-12T23:58:01.546Z,7.21
